sensor_id;sensor_type;location;lat;lon;timestamp;P1;durP1;ratioP1;P2;durP2;ratioP2
35110;SDS011;21290;50.158;8.658;2022-09-25T00:00:48;34.60;;;25.88;;
35110;SDS011;21290;50.158;8.658;2022-09-25T00:03:16;33.38;;;24.42;;
35110;SDS011;21290;50.158;8.658;2022-09-25T00:05:44;33.75;;;24.02;;
35110;SDS011;21290;50.158;8.658;2022-09-25T00:08:12;32.00;;;23.65;;
35110;SDS011;21290;50.158;8.658;2022-09-25T00:10:43;30.73;;;24.08;;
35110;SDS011;21290;50.158;8.658;2022-09-25T00:13:12;36.17;;;25.17;;
35110;SDS011;21290;50.158;8.658;2022-09-25T00:15:44;34.25;;;25.35;;
35110;SDS011;21290;50.158;8.658;2022-09-25T00:18:12;34.58;;;24.45;;
35110;SDS011;21290;50.158;8.658;2022-09-25T00:20:39;29.02;;;23.88;;
35110;SDS011;21290;50.158;8.658;2022-09-25T00:23:06;31.60;;;24.55;;
35110;SDS011;21290;50.158;8.658;2022-09-25T00:25:33;33.22;;;24.13;;
35110;SDS011;21290;50.158;8.658;2022-09-25T00:28:00;32.83;;;24.75;;
35110;SDS011;21290;50.158;8.658;2022-09-25T00:30:27;32.25;;;24.13;;
35110;SDS011;21290;50.158;8.658;2022-09-25T00:32:53;32.40;;;24.10;;
35110;SDS011;21290;50.158;8.658;2022-09-25T00:35:20;34.83;;;24.48;;
35110;SDS011;21290;50.158;8.658;2022-09-25T00:37:46;31.88;;;24.70;;
35110;SDS011;21290;50.158;8.658;2022-09-25T00:40:13;28.80;;;22.75;;
35110;SDS011;21290;50.158;8.658;2022-09-25T00:42:39;30.95;;;23.52;;
35110;SDS011;21290;50.158;8.658;2022-09-25T00:45:12;32.50;;;23.98;;
35110;SDS011;21290;50.158;8.658;2022-09-25T00:50:20;28.75;;;22.23;;
35110;SDS011;21290;50.158;8.658;2022-09-25T00:52:52;28.17;;;22.77;;
35110;SDS011;21290;50.158;8.658;2022-09-25T00:55:21;27.77;;;22.25;;
35110;SDS011;21290;50.158;8.658;2022-09-25T00:57:51;32.17;;;23.42;;
35110;SDS011;21290;50.158;8.658;2022-09-25T01:00:21;28.70;;;23.30;;
35110;SDS011;21290;50.158;8.658;2022-09-25T01:02:50;30.60;;;22.35;;
35110;SDS011;21290;50.158;8.658;2022-09-25T01:05:20;31.17;;;23.40;;
35110;SDS011;21290;50.158;8.658;2022-09-25T01:07:51;29.88;;;22.58;;
35110;SDS011;21290;50.158;8.658;2022-09-25T01:10:19;30.98;;;23.55;;
35110;SDS011;21290;50.158;8.658;2022-09-25T01:12:46;32.45;;;24.25;;
35110;SDS011;21290;50.158;8.658;2022-09-25T01:15:15;31.48;;;23.67;;
35110;SDS011;21290;50.158;8.658;2022-09-25T01:17:49;32.58;;;23.55;;
35110;SDS011;21290;50.158;8.658;2022-09-25T01:23:19;28.95;;;22.50;;
35110;SDS011;21290;50.158;8.658;2022-09-25T01:31:58;31.05;;;20.83;;
35110;SDS011;21290;50.158;8.658;2022-09-25T01:34:48;24.67;;;20.30;;
35110;SDS011;21290;50.158;8.658;2022-09-25T01:37:31;27.77;;;20.88;;
35110;SDS011;21290;50.158;8.658;2022-09-25T01:43:00;25.75;;;19.50;;
35110;SDS011;21290;50.158;8.658;2022-09-25T01:48:19;25.17;;;20.55;;
35110;SDS011;21290;50.158;8.658;2022-09-25T01:50:51;23.92;;;19.40;;
35110;SDS011;21290;50.158;8.658;2022-09-25T01:53:26;24.73;;;19.42;;
35110;SDS011;21290;50.158;8.658;2022-09-25T01:56:01;25.35;;;20.27;;
35110;SDS011;21290;50.158;8.658;2022-09-25T01:58:49;24.27;;;19.48;;
35110;SDS011;21290;50.158;8.658;2022-09-25T02:01:22;29.08;;;22.00;;
35110;SDS011;21290;50.158;8.658;2022-09-25T02:03:58;27.17;;;20.98;;
35110;SDS011;21290;50.158;8.658;2022-09-25T02:06:30;25.45;;;20.45;;
35110;SDS011;21290;50.158;8.658;2022-09-25T02:09:09;28.87;;;21.40;;
35110;SDS011;21290;50.158;8.658;2022-09-25T02:11:42;33.33;;;22.98;;
35110;SDS011;21290;50.158;8.658;2022-09-25T02:14:14;26.42;;;21.58;;
35110;SDS011;21290;50.158;8.658;2022-09-25T02:16:46;30.90;;;22.50;;
35110;SDS011;21290;50.158;8.658;2022-09-25T02:19:16;28.65;;;22.83;;
35110;SDS011;21290;50.158;8.658;2022-09-25T02:22:06;32.53;;;22.85;;
35110;SDS011;21290;50.158;8.658;2022-09-25T02:27:20;33.25;;;25.55;;
35110;SDS011;21290;50.158;8.658;2022-09-25T02:29:49;35.25;;;25.83;;
35110;SDS011;21290;50.158;8.658;2022-09-25T02:32:18;38.03;;;26.60;;
35110;SDS011;21290;50.158;8.658;2022-09-25T02:34:47;38.03;;;27.63;;
35110;SDS011;21290;50.158;8.658;2022-09-25T02:37:14;35.80;;;26.70;;
35110;SDS011;21290;50.158;8.658;2022-09-25T02:39:44;36.38;;;28.00;;
35110;SDS011;21290;50.158;8.658;2022-09-25T02:53:42;38.70;;;28.80;;
35110;SDS011;21290;50.158;8.658;2022-09-25T02:56:21;42.97;;;31.40;;
35110;SDS011;21290;50.158;8.658;2022-09-25T02:58:58;40.17;;;30.25;;
35110;SDS011;21290;50.158;8.658;2022-09-25T03:01:31;41.25;;;30.90;;
35110;SDS011;21290;50.158;8.658;2022-09-25T03:04:02;41.83;;;30.33;;
35110;SDS011;21290;50.158;8.658;2022-09-25T03:06:30;44.53;;;31.75;;
35110;SDS011;21290;50.158;8.658;2022-09-25T03:08:57;40.55;;;31.67;;
35110;SDS011;21290;50.158;8.658;2022-09-25T03:11:25;46.55;;;31.27;;
35110;SDS011;21290;50.158;8.658;2022-09-25T03:14:00;45.35;;;32.75;;
35110;SDS011;21290;50.158;8.658;2022-09-25T03:18:55;48.10;;;32.75;;
35110;SDS011;21290;50.158;8.658;2022-09-25T03:21:22;46.75;;;30.83;;
35110;SDS011;21290;50.158;8.658;2022-09-25T03:23:48;41.83;;;31.77;;
35110;SDS011;21290;50.158;8.658;2022-09-25T03:26:15;44.38;;;31.42;;
35110;SDS011;21290;50.158;8.658;2022-09-25T03:28:41;43.75;;;32.40;;
35110;SDS011;21290;50.158;8.658;2022-09-25T03:31:09;44.08;;;31.25;;
35110;SDS011;21290;50.158;8.658;2022-09-25T03:33:37;41.23;;;30.27;;
35110;SDS011;21290;50.158;8.658;2022-09-25T03:36:18;46.05;;;31.20;;
35110;SDS011;21290;50.158;8.658;2022-09-25T03:38:47;44.58;;;30.90;;
35110;SDS011;21290;50.158;8.658;2022-09-25T03:41:17;44.42;;;30.10;;
35110;SDS011;21290;50.158;8.658;2022-09-25T03:43:47;46.42;;;31.25;;
35110;SDS011;21290;50.158;8.658;2022-09-25T03:46:18;46.47;;;31.10;;
35110;SDS011;21290;50.158;8.658;2022-09-25T03:48:46;41.08;;;29.52;;
35110;SDS011;21290;50.158;8.658;2022-09-25T03:51:13;45.63;;;31.65;;
35110;SDS011;21290;50.158;8.658;2022-09-25T03:53:40;40.83;;;28.77;;
35110;SDS011;21290;50.158;8.658;2022-09-25T03:56:08;41.05;;;28.42;;
35110;SDS011;21290;50.158;8.658;2022-09-25T03:58:38;39.15;;;28.17;;
35110;SDS011;21290;50.158;8.658;2022-09-25T04:01:05;41.95;;;28.38;;
35110;SDS011;21290;50.158;8.658;2022-09-25T04:03:32;43.22;;;28.10;;
35110;SDS011;21290;50.158;8.658;2022-09-25T04:06:00;37.88;;;28.08;;
35110;SDS011;21290;50.158;8.658;2022-09-25T04:08:30;39.47;;;27.15;;
35110;SDS011;21290;50.158;8.658;2022-09-25T04:10:58;38.50;;;26.95;;
35110;SDS011;21290;50.158;8.658;2022-09-25T04:13:26;39.30;;;27.10;;
35110;SDS011;21290;50.158;8.658;2022-09-25T04:15:58;39.60;;;27.00;;
35110;SDS011;21290;50.158;8.658;2022-09-25T04:18:26;39.88;;;26.25;;
35110;SDS011;21290;50.158;8.658;2022-09-25T04:20:57;34.72;;;24.27;;
35110;SDS011;21290;50.158;8.658;2022-09-25T04:23:24;31.63;;;23.75;;
35110;SDS011;21290;50.158;8.658;2022-09-25T04:25:51;35.28;;;23.42;;
35110;SDS011;21290;50.158;8.658;2022-09-25T04:28:18;28.55;;;22.05;;
35110;SDS011;21290;50.158;8.658;2022-09-25T04:30:46;27.13;;;21.42;;
35110;SDS011;21290;50.158;8.658;2022-09-25T04:33:13;28.40;;;20.67;;
35110;SDS011;21290;50.158;8.658;2022-09-25T04:35:59;28.25;;;22.00;;
35110;SDS011;21290;50.158;8.658;2022-09-25T04:38:27;26.08;;;21.13;;
35110;SDS011;21290;50.158;8.658;2022-09-25T04:40:57;26.88;;;20.15;;
35110;SDS011;21290;50.158;8.658;2022-09-25T04:43:26;25.02;;;19.65;;
35110;SDS011;21290;50.158;8.658;2022-09-25T04:48:21;26.98;;;19.75;;
35110;SDS011;21290;50.158;8.658;2022-09-25T04:50:48;26.02;;;20.13;;
35110;SDS011;21290;50.158;8.658;2022-09-25T04:53:16;29.23;;;19.17;;
35110;SDS011;21290;50.158;8.658;2022-09-25T04:55:42;26.20;;;20.48;;
35110;SDS011;21290;50.158;8.658;2022-09-25T04:58:11;25.40;;;20.38;;
35110;SDS011;21290;50.158;8.658;2022-09-25T05:00:37;25.20;;;19.55;;
35110;SDS011;21290;50.158;8.658;2022-09-25T05:03:05;26.48;;;20.75;;
35110;SDS011;21290;50.158;8.658;2022-09-25T05:05:33;27.98;;;19.80;;
35110;SDS011;21290;50.158;8.658;2022-09-25T05:08:00;25.30;;;19.50;;
35110;SDS011;21290;50.158;8.658;2022-09-25T05:10:29;27.75;;;20.23;;
35110;SDS011;21290;50.158;8.658;2022-09-25T05:12:58;27.05;;;19.15;;
35110;SDS011;21290;50.158;8.658;2022-09-25T05:15:26;23.52;;;17.95;;
35110;SDS011;21290;50.158;8.658;2022-09-25T05:18:01;23.98;;;18.85;;
35110;SDS011;21290;50.158;8.658;2022-09-25T05:20:35;25.30;;;19.63;;
35110;SDS011;21290;50.158;8.658;2022-09-25T05:23:02;27.38;;;19.33;;
35110;SDS011;21290;50.158;8.658;2022-09-25T05:25:30;28.30;;;19.73;;
35110;SDS011;21290;50.158;8.658;2022-09-25T05:27:57;27.52;;;19.75;;
35110;SDS011;21290;50.158;8.658;2022-09-25T05:30:25;29.27;;;19.77;;
35110;SDS011;21290;50.158;8.658;2022-09-25T05:32:54;25.15;;;19.80;;
35110;SDS011;21290;50.158;8.658;2022-09-25T05:35:23;31.58;;;20.55;;
35110;SDS011;21290;50.158;8.658;2022-09-25T05:37:51;27.35;;;20.50;;
35110;SDS011;21290;50.158;8.658;2022-09-25T05:40:18;26.92;;;20.63;;
35110;SDS011;21290;50.158;8.658;2022-09-25T05:42:49;28.45;;;20.17;;
35110;SDS011;21290;50.158;8.658;2022-09-25T05:45:17;31.67;;;21.60;;
35110;SDS011;21290;50.158;8.658;2022-09-25T05:47:45;28.88;;;20.65;;
35110;SDS011;21290;50.158;8.658;2022-09-25T05:50:12;27.35;;;20.50;;
35110;SDS011;21290;50.158;8.658;2022-09-25T05:52:40;31.65;;;20.92;;
35110;SDS011;21290;50.158;8.658;2022-09-25T05:55:07;28.98;;;20.83;;
35110;SDS011;21290;50.158;8.658;2022-09-25T05:57:35;28.98;;;20.85;;
35110;SDS011;21290;50.158;8.658;2022-09-25T06:00:03;30.02;;;21.52;;
35110;SDS011;21290;50.158;8.658;2022-09-25T06:02:32;28.83;;;20.35;;
35110;SDS011;21290;50.158;8.658;2022-09-25T06:04:59;31.55;;;22.40;;
35110;SDS011;21290;50.158;8.658;2022-09-25T06:07:26;31.95;;;22.33;;
35110;SDS011;21290;50.158;8.658;2022-09-25T06:09:52;31.95;;;21.48;;
35110;SDS011;21290;50.158;8.658;2022-09-25T06:12:19;34.10;;;22.52;;
35110;SDS011;21290;50.158;8.658;2022-09-25T06:14:48;34.15;;;21.67;;
35110;SDS011;21290;50.158;8.658;2022-09-25T06:17:14;32.90;;;22.48;;
35110;SDS011;21290;50.158;8.658;2022-09-25T06:19:41;29.77;;;22.42;;
35110;SDS011;21290;50.158;8.658;2022-09-25T06:22:08;34.10;;;22.65;;
35110;SDS011;21290;50.158;8.658;2022-09-25T06:24:34;31.60;;;22.65;;
35110;SDS011;21290;50.158;8.658;2022-09-25T06:27:01;32.83;;;23.33;;
35110;SDS011;21290;50.158;8.658;2022-09-25T06:29:27;34.50;;;22.73;;
35110;SDS011;21290;50.158;8.658;2022-09-25T06:31:54;33.42;;;22.48;;
35110;SDS011;21290;50.158;8.658;2022-09-25T06:34:20;33.00;;;23.38;;
35110;SDS011;21290;50.158;8.658;2022-09-25T06:36:48;37.05;;;24.35;;
35110;SDS011;21290;50.158;8.658;2022-09-25T06:39:14;31.60;;;22.92;;
35110;SDS011;21290;50.158;8.658;2022-09-25T06:41:41;34.13;;;21.85;;
35110;SDS011;21290;50.158;8.658;2022-09-25T06:44:07;32.00;;;22.48;;
35110;SDS011;21290;50.158;8.658;2022-09-25T06:46:37;35.30;;;23.45;;
35110;SDS011;21290;50.158;8.658;2022-09-25T06:49:03;33.40;;;22.55;;
35110;SDS011;21290;50.158;8.658;2022-09-25T06:51:32;33.55;;;23.02;;
35110;SDS011;21290;50.158;8.658;2022-09-25T06:54:00;35.28;;;24.05;;
35110;SDS011;21290;50.158;8.658;2022-09-25T06:56:26;36.65;;;26.23;;
35110;SDS011;21290;50.158;8.658;2022-09-25T06:58:53;31.83;;;23.23;;
35110;SDS011;21290;50.158;8.658;2022-09-25T07:01:20;34.60;;;24.02;;
35110;SDS011;21290;50.158;8.658;2022-09-25T07:03:46;30.60;;;22.35;;
35110;SDS011;21290;50.158;8.658;2022-09-25T07:06:18;33.17;;;22.55;;
35110;SDS011;21290;50.158;8.658;2022-09-25T07:08:47;30.58;;;22.38;;
35110;SDS011;21290;50.158;8.658;2022-09-25T07:11:19;33.70;;;22.27;;
35110;SDS011;21290;50.158;8.658;2022-09-25T07:13:47;30.60;;;21.63;;
35110;SDS011;21290;50.158;8.658;2022-09-25T07:16:16;34.72;;;22.77;;
35110;SDS011;21290;50.158;8.658;2022-09-25T07:18:45;32.45;;;22.25;;
35110;SDS011;21290;50.158;8.658;2022-09-25T07:21:13;28.80;;;21.30;;
35110;SDS011;21290;50.158;8.658;2022-09-25T07:23:40;32.60;;;23.05;;
35110;SDS011;21290;50.158;8.658;2022-09-25T07:26:11;28.95;;;20.85;;
35110;SDS011;21290;50.158;8.658;2022-09-25T07:28:40;28.77;;;20.38;;
35110;SDS011;21290;50.158;8.658;2022-09-25T07:33:37;27.70;;;21.33;;
35110;SDS011;21290;50.158;8.658;2022-09-25T07:36:04;28.42;;;20.08;;
35110;SDS011;21290;50.158;8.658;2022-09-25T07:38:30;27.23;;;20.23;;
35110;SDS011;21290;50.158;8.658;2022-09-25T07:40:59;25.48;;;19.60;;
35110;SDS011;21290;50.158;8.658;2022-09-25T07:43:25;30.48;;;21.00;;
35110;SDS011;21290;50.158;8.658;2022-09-25T07:45:52;29.38;;;19.33;;
35110;SDS011;21290;50.158;8.658;2022-09-25T07:48:19;25.33;;;19.25;;
35110;SDS011;21290;50.158;8.658;2022-09-25T07:50:48;24.70;;;18.90;;
35110;SDS011;21290;50.158;8.658;2022-09-25T07:53:15;25.00;;;18.67;;
35110;SDS011;21290;50.158;8.658;2022-09-25T07:55:45;27.00;;;19.48;;
35110;SDS011;21290;50.158;8.658;2022-09-25T07:58:13;26.17;;;18.20;;
35110;SDS011;21290;50.158;8.658;2022-09-25T08:00:40;26.40;;;18.63;;
35110;SDS011;21290;50.158;8.658;2022-09-25T08:03:07;24.02;;;18.05;;
35110;SDS011;21290;50.158;8.658;2022-09-25T08:05:36;25.23;;;19.33;;
35110;SDS011;21290;50.158;8.658;2022-09-25T08:08:02;24.52;;;18.58;;
35110;SDS011;21290;50.158;8.658;2022-09-25T08:10:29;27.45;;;19.05;;
35110;SDS011;21290;50.158;8.658;2022-09-25T08:12:57;23.55;;;17.55;;
35110;SDS011;21290;50.158;8.658;2022-09-25T08:15:23;24.88;;;18.58;;
35110;SDS011;21290;50.158;8.658;2022-09-25T08:17:50;21.33;;;17.50;;
35110;SDS011;21290;50.158;8.658;2022-09-25T08:20:17;23.58;;;17.42;;
35110;SDS011;21290;50.158;8.658;2022-09-25T08:22:44;26.67;;;18.13;;
35110;SDS011;21290;50.158;8.658;2022-09-25T08:25:11;27.25;;;17.77;;
35110;SDS011;21290;50.158;8.658;2022-09-25T08:27:38;24.13;;;18.83;;
35110;SDS011;21290;50.158;8.658;2022-09-25T08:30:09;22.45;;;17.52;;
35110;SDS011;21290;50.158;8.658;2022-09-25T08:32:36;24.52;;;18.58;;
35110;SDS011;21290;50.158;8.658;2022-09-25T08:35:03;19.67;;;16.67;;
35110;SDS011;21290;50.158;8.658;2022-09-25T08:37:30;25.98;;;18.70;;
35110;SDS011;21290;50.158;8.658;2022-09-25T08:39:57;22.70;;;17.83;;
35110;SDS011;21290;50.158;8.658;2022-09-25T08:42:29;24.77;;;17.48;;
35110;SDS011;21290;50.158;8.658;2022-09-25T08:45:05;22.90;;;16.98;;
35110;SDS011;21290;50.158;8.658;2022-09-25T08:47:54;24.17;;;17.77;;
35110;SDS011;21290;50.158;8.658;2022-09-25T08:50:41;20.40;;;15.48;;
35110;SDS011;21290;50.158;8.658;2022-09-25T08:53:17;23.02;;;16.58;;
35110;SDS011;21290;50.158;8.658;2022-09-25T08:55:49;22.63;;;16.70;;
35110;SDS011;21290;50.158;8.658;2022-09-25T08:58:36;21.92;;;17.00;;
35110;SDS011;21290;50.158;8.658;2022-09-25T09:01:12;20.45;;;15.90;;
35110;SDS011;21290;50.158;8.658;2022-09-25T09:04:00;21.77;;;17.10;;
35110;SDS011;21290;50.158;8.658;2022-09-25T09:06:30;19.75;;;16.25;;
35110;SDS011;21290;50.158;8.658;2022-09-25T09:09:05;21.33;;;16.13;;
35110;SDS011;21290;50.158;8.658;2022-09-25T09:11:43;19.30;;;15.43;;
35110;SDS011;21290;50.158;8.658;2022-09-25T09:14:23;22.55;;;16.20;;
35110;SDS011;21290;50.158;8.658;2022-09-25T09:16:54;22.38;;;16.02;;
35110;SDS011;21290;50.158;8.658;2022-09-25T09:19:25;23.90;;;15.35;;
35110;SDS011;21290;50.158;8.658;2022-09-25T09:22:11;19.77;;;15.73;;
35110;SDS011;21290;50.158;8.658;2022-09-25T09:24:52;22.10;;;16.42;;
35110;SDS011;21290;50.158;8.658;2022-09-25T09:32:53;23.08;;;16.13;;
35110;SDS011;21290;50.158;8.658;2022-09-25T09:35:40;17.50;;;14.75;;
35110;SDS011;21290;50.158;8.658;2022-09-25T09:38:15;20.40;;;16.67;;
35110;SDS011;21290;50.158;8.658;2022-09-25T09:40:58;21.05;;;15.60;;
35110;SDS011;21290;50.158;8.658;2022-09-25T09:43:39;22.30;;;15.52;;
35110;SDS011;21290;50.158;8.658;2022-09-25T09:49:16;19.58;;;15.50;;
35110;SDS011;21290;50.158;8.658;2022-09-25T09:52:16;20.38;;;15.98;;
35110;SDS011;21290;50.158;8.658;2022-09-25T09:54:51;20.40;;;15.30;;
35110;SDS011;21290;50.158;8.658;2022-09-25T09:57:23;20.98;;;15.90;;
35110;SDS011;21290;50.158;8.658;2022-09-25T09:59:56;20.30;;;16.17;;
35110;SDS011;21290;50.158;8.658;2022-09-25T10:02:38;20.00;;;14.88;;
35110;SDS011;21290;50.158;8.658;2022-09-25T10:05:14;24.58;;;15.52;;
35110;SDS011;21290;50.158;8.658;2022-09-25T10:08:00;21.25;;;14.95;;
35110;SDS011;21290;50.158;8.658;2022-09-25T10:10:36;24.63;;;15.98;;
35110;SDS011;21290;50.158;8.658;2022-09-25T10:13:18;19.25;;;15.55;;
35110;SDS011;21290;50.158;8.658;2022-09-25T10:15:52;21.17;;;16.83;;
35110;SDS011;21290;50.158;8.658;2022-09-25T10:18:24;21.60;;;16.02;;
35110;SDS011;21290;50.158;8.658;2022-09-25T10:21:04;23.95;;;16.42;;
35110;SDS011;21290;50.158;8.658;2022-09-25T10:23:56;20.05;;;14.80;;
35110;SDS011;21290;50.158;8.658;2022-09-25T10:26:29;18.02;;;14.55;;
35110;SDS011;21290;50.158;8.658;2022-09-25T10:29:24;19.05;;;14.35;;
35110;SDS011;21290;50.158;8.658;2022-09-25T10:31:56;19.23;;;13.98;;
35110;SDS011;21290;50.158;8.658;2022-09-25T10:34:24;18.00;;;12.75;;
35110;SDS011;21290;50.158;8.658;2022-09-25T10:36:54;16.58;;;12.23;;
35110;SDS011;21290;50.158;8.658;2022-09-25T10:39:28;18.10;;;12.48;;
35110;SDS011;21290;50.158;8.658;2022-09-25T10:44:59;15.45;;;11.68;;
35110;SDS011;21290;50.158;8.658;2022-09-25T10:48:01;14.75;;;11.60;;
35110;SDS011;21290;50.158;8.658;2022-09-25T10:51:10;13.88;;;9.77;;
35110;SDS011;21290;50.158;8.658;2022-09-25T10:53:43;14.13;;;9.57;;
35110;SDS011;21290;50.158;8.658;2022-09-25T10:56:13;13.55;;;9.70;;
35110;SDS011;21290;50.158;8.658;2022-09-25T10:58:45;11.63;;;9.18;;
35110;SDS011;21290;50.158;8.658;2022-09-25T11:01:13;11.15;;;7.47;;
35110;SDS011;21290;50.158;8.658;2022-09-25T11:06:17;9.40;;;6.35;;
35110;SDS011;21290;50.158;8.658;2022-09-25T11:08:52;6.97;;;6.28;;
35110;SDS011;21290;50.158;8.658;2022-09-25T11:11:40;8.30;;;6.40;;
35110;SDS011;21290;50.158;8.658;2022-09-25T11:14:15;11.30;;;6.93;;
35110;SDS011;21290;50.158;8.658;2022-09-25T11:16:52;7.80;;;6.05;;
35110;SDS011;21290;50.158;8.658;2022-09-25T11:19:25;9.32;;;5.10;;
35110;SDS011;21290;50.158;8.658;2022-09-25T11:22:04;7.80;;;4.65;;
35110;SDS011;21290;50.158;8.658;2022-09-25T11:25:11;5.95;;;4.88;;
35110;SDS011;21290;50.158;8.658;2022-09-25T11:27:47;7.50;;;4.53;;
35110;SDS011;21290;50.158;8.658;2022-09-25T11:30:19;7.68;;;4.60;;
35110;SDS011;21290;50.158;8.658;2022-09-25T11:32:57;9.45;;;3.80;;
35110;SDS011;21290;50.158;8.658;2022-09-25T11:35:47;6.45;;;3.38;;
35110;SDS011;21290;50.158;8.658;2022-09-25T11:41:43;8.43;;;3.50;;
35110;SDS011;21290;50.158;8.658;2022-09-25T11:44:22;7.68;;;3.10;;
35110;SDS011;21290;50.158;8.658;2022-09-25T11:49:40;10.52;;;3.90;;
35110;SDS011;21290;50.158;8.658;2022-09-25T11:55:21;5.30;;;2.85;;
35110;SDS011;21290;50.158;8.658;2022-09-25T12:07:02;8.07;;;3.05;;
35110;SDS011;21290;50.158;8.658;2022-09-25T12:09:58;6.38;;;2.65;;
35110;SDS011;21290;50.158;8.658;2022-09-25T12:12:45;7.03;;;3.40;;
35110;SDS011;21290;50.158;8.658;2022-09-25T12:18:12;19.55;;;4.35;;
35110;SDS011;21290;50.158;8.658;2022-09-25T12:23:19;10.35;;;3.60;;
35110;SDS011;21290;50.158;8.658;2022-09-25T12:26:29;6.13;;;2.90;;
35110;SDS011;21290;50.158;8.658;2022-09-25T12:35:16;9.45;;;3.10;;
35110;SDS011;21290;50.158;8.658;2022-09-25T12:43:10;7.47;;;2.78;;
35110;SDS011;21290;50.158;8.658;2022-09-25T12:45:57;7.90;;;2.83;;
35110;SDS011;21290;50.158;8.658;2022-09-25T12:54:02;7.47;;;3.00;;
35110;SDS011;21290;50.158;8.658;2022-09-25T12:59:18;5.07;;;2.75;;
35110;SDS011;21290;50.158;8.658;2022-09-25T13:02:27;6.75;;;3.00;;
35110;SDS011;21290;50.158;8.658;2022-09-25T13:05:07;8.20;;;3.70;;
35110;SDS011;21290;50.158;8.658;2022-09-25T13:07:54;10.13;;;3.25;;
35110;SDS011;21290;50.158;8.658;2022-09-25T13:10:30;7.57;;;3.40;;
35110;SDS011;21290;50.158;8.658;2022-09-25T13:13:16;10.82;;;3.63;;
35110;SDS011;21290;50.158;8.658;2022-09-25T13:15:50;8.05;;;3.40;;
35110;SDS011;21290;50.158;8.658;2022-09-25T13:18:21;10.48;;;4.05;;
35110;SDS011;21290;50.158;8.658;2022-09-25T13:20:56;7.47;;;3.15;;
35110;SDS011;21290;50.158;8.658;2022-09-25T13:26:08;8.23;;;3.38;;
35110;SDS011;21290;50.158;8.658;2022-09-25T13:28:39;6.00;;;3.30;;
35110;SDS011;21290;50.158;8.658;2022-09-25T13:31:25;6.68;;;3.55;;
35110;SDS011;21290;50.158;8.658;2022-09-25T13:36:30;9.07;;;3.72;;
35110;SDS011;21290;50.158;8.658;2022-09-25T13:42:40;6.55;;;2.95;;
35110;SDS011;21290;50.158;8.658;2022-09-25T13:58:22;6.90;;;3.30;;
35110;SDS011;21290;50.158;8.658;2022-09-25T14:00:52;7.72;;;3.92;;
35110;SDS011;21290;50.158;8.658;2022-09-25T14:03:39;5.40;;;3.35;;
35110;SDS011;21290;50.158;8.658;2022-09-25T14:06:19;5.15;;;3.40;;
35110;SDS011;21290;50.158;8.658;2022-09-25T14:08:49;6.50;;;2.95;;
35110;SDS011;21290;50.158;8.658;2022-09-25T14:11:27;11.98;;;3.97;;
35110;SDS011;21290;50.158;8.658;2022-09-25T14:13:57;4.28;;;2.70;;
35110;SDS011;21290;50.158;8.658;2022-09-25T14:16:27;6.93;;;2.80;;
35110;SDS011;21290;50.158;8.658;2022-09-25T14:18:57;4.80;;;2.90;;
35110;SDS011;21290;50.158;8.658;2022-09-25T14:21:26;7.72;;;3.33;;
35110;SDS011;21290;50.158;8.658;2022-09-25T14:23:55;6.20;;;3.13;;
35110;SDS011;21290;50.158;8.658;2022-09-25T14:26:24;5.13;;;2.70;;
35110;SDS011;21290;50.158;8.658;2022-09-25T14:28:52;4.00;;;2.33;;
35110;SDS011;21290;50.158;8.658;2022-09-25T14:48:26;4.80;;;2.10;;
35110;SDS011;21290;50.158;8.658;2022-09-25T14:51:02;8.65;;;2.35;;
35110;SDS011;21290;50.158;8.658;2022-09-25T14:53:37;9.60;;;4.32;;
35110;SDS011;21290;50.158;8.658;2022-09-25T14:56:09;20.65;;;8.65;;
35110;SDS011;21290;50.158;8.658;2022-09-25T14:58:42;21.52;;;9.00;;
35110;SDS011;21290;50.158;8.658;2022-09-25T15:01:25;19.65;;;8.95;;
35110;SDS011;21290;50.158;8.658;2022-09-25T15:04:04;10.60;;;4.90;;
35110;SDS011;21290;50.158;8.658;2022-09-25T15:06:33;8.07;;;3.50;;
35110;SDS011;21290;50.158;8.658;2022-09-25T15:09:01;10.93;;;4.00;;
35110;SDS011;21290;50.158;8.658;2022-09-25T15:12:11;12.00;;;6.40;;
35110;SDS011;21290;50.158;8.658;2022-09-25T15:14:55;12.82;;;6.20;;
35110;SDS011;21290;50.158;8.658;2022-09-25T15:17:36;14.68;;;8.25;;
35110;SDS011;21290;50.158;8.658;2022-09-25T15:20:10;13.23;;;6.60;;
35110;SDS011;21290;50.158;8.658;2022-09-25T15:22:39;15.85;;;9.57;;
35110;SDS011;21290;50.158;8.658;2022-09-25T15:25:11;14.55;;;7.68;;
35110;SDS011;21290;50.158;8.658;2022-09-25T15:27:46;18.83;;;9.50;;
35110;SDS011;21290;50.158;8.658;2022-09-25T15:30:17;10.00;;;6.57;;
35110;SDS011;21290;50.158;8.658;2022-09-25T15:32:47;8.45;;;3.92;;
35110;SDS011;21290;50.158;8.658;2022-09-25T15:35:25;4.78;;;2.65;;
35110;SDS011;21290;50.158;8.658;2022-09-25T15:38:00;8.90;;;3.30;;
35110;SDS011;21290;50.158;8.658;2022-09-25T15:40:29;5.00;;;3.05;;
35110;SDS011;21290;50.158;8.658;2022-09-25T15:42:56;6.68;;;2.75;;
35110;SDS011;21290;50.158;8.658;2022-09-25T15:48:15;11.88;;;8.32;;
35110;SDS011;21290;50.158;8.658;2022-09-25T15:50:59;14.10;;;7.93;;
35110;SDS011;21290;50.158;8.658;2022-09-25T15:53:28;8.60;;;4.80;;
35110;SDS011;21290;50.158;8.658;2022-09-25T15:56:15;8.23;;;4.45;;
35110;SDS011;21290;50.158;8.658;2022-09-25T15:58:44;18.35;;;9.27;;
35110;SDS011;21290;50.158;8.658;2022-09-25T16:01:15;7.68;;;4.53;;
35110;SDS011;21290;50.158;8.658;2022-09-25T16:04:08;7.65;;;2.95;;
35110;SDS011;21290;50.158;8.658;2022-09-25T16:17:53;6.72;;;2.05;;
35110;SDS011;21290;50.158;8.658;2022-09-25T16:20:29;6.25;;;2.42;;
35110;SDS011;21290;50.158;8.658;2022-09-25T16:22:59;5.10;;;2.03;;
35110;SDS011;21290;50.158;8.658;2022-09-25T16:25:33;4.68;;;2.47;;
35110;SDS011;21290;50.158;8.658;2022-09-25T16:28:06;6.38;;;2.75;;
35110;SDS011;21290;50.158;8.658;2022-09-25T16:30:45;7.72;;;2.83;;
35110;SDS011;21290;50.158;8.658;2022-09-25T16:33:25;6.68;;;3.22;;
35110;SDS011;21290;50.158;8.658;2022-09-25T16:36:03;7.32;;;2.50;;
35110;SDS011;21290;50.158;8.658;2022-09-25T16:38:42;9.57;;;3.63;;
35110;SDS011;21290;50.158;8.658;2022-09-25T16:41:29;30.27;;;19.83;;
35110;SDS011;21290;50.158;8.658;2022-09-25T16:44:09;47.45;;;28.67;;
35110;SDS011;21290;50.158;8.658;2022-09-25T16:46:40;42.60;;;28.63;;
35110;SDS011;21290;50.158;8.658;2022-09-25T16:49:11;18.75;;;7.78;;
35110;SDS011;21290;50.158;8.658;2022-09-25T16:51:39;8.75;;;4.70;;
35110;SDS011;21290;50.158;8.658;2022-09-25T16:54:11;12.95;;;4.25;;
35110;SDS011;21290;50.158;8.658;2022-09-25T16:56:40;7.13;;;4.05;;
35110;SDS011;21290;50.158;8.658;2022-09-25T16:59:18;8.88;;;4.68;;
35110;SDS011;21290;50.158;8.658;2022-09-25T17:01:51;10.80;;;5.22;;
35110;SDS011;21290;50.158;8.658;2022-09-25T17:04:22;25.45;;;10.15;;
35110;SDS011;21290;50.158;8.658;2022-09-25T17:06:54;10.50;;;4.05;;
35110;SDS011;21290;50.158;8.658;2022-09-25T17:09:27;7.18;;;3.53;;
35110;SDS011;21290;50.158;8.658;2022-09-25T17:11:57;8.57;;;3.85;;
35110;SDS011;21290;50.158;8.658;2022-09-25T17:14:26;7.90;;;3.75;;
35110;SDS011;21290;50.158;8.658;2022-09-25T17:16:54;5.85;;;3.42;;
35110;SDS011;21290;50.158;8.658;2022-09-25T17:19:22;9.25;;;3.30;;
35110;SDS011;21290;50.158;8.658;2022-09-25T17:21:49;6.65;;;3.22;;
35110;SDS011;21290;50.158;8.658;2022-09-25T17:24:18;11.88;;;3.97;;
35110;SDS011;21290;50.158;8.658;2022-09-25T17:26:48;10.93;;;4.28;;
35110;SDS011;21290;50.158;8.658;2022-09-25T17:29:17;10.30;;;4.20;;